Terminal Aerodrome Forecast
Issued by NWS

Home | Current Version | Previous Version | Text Only | Print | Product List | Glossary On
Versions: 1 2 3 4 5 6 7 8 9 10 11 12 13 14
000
FTUS46 KSEW 072131 AAA
TAFPAE
TAF AMD
KPAE 072131Z 0722/0818 01005KT P6SM SCT035 BKN080 OVC120
      TEMPO 0722/0724 BKN035 OVC060
     FM080200 VRB03KT P6SM SCT120 BKN200
     FM080800 VRB03KT P6SM SCT200
     FM081100 VRB03KT 3SM MIFG SKC
      TEMPO 0812/0816 1/2SM FG VV001=

USA.gov is the U.S. government's official web portal to all federal, state and local government web resources and services.